Airfield :
LOGIN :

Register | Disclaimer

   EN    FR    IT 

 










Legend :    VFR   Marginal VFR   IFR   Intensive IFR   Very Intensive IFR
Visi :
Ceiling :
>= 8 km
>= 3000ft
5 to 8 km
1000 to 3000 ft
1500m to 5 km
500 to 1000 ft
800 to 1500m
200 to 500 ft
< 800m
< 200 ft
Symbols :   Thunderstorms  Fog  Heavy snow  Heavy precipitations  Wind > 20 kt
SIGMETs :     Misc.  Thunderstorms  Icing  Turbulence  Mountain Waves  Volcanic Ashes







- Airport Elevation : 7 ft
- IATA code : VCE


LIPZ - Marco Polo Int. Venezia

CURRENT METAR :
  • 230450Z 36004KT 330V030 1500 BR SCT004 BKN020 16/15 Q1016 TEMPO 0800 BCFG

EXPIRED METARs :
  • 230420Z 35003KT 5000 2000NE BR FEW006 BKN035 16/15 Q1016 NOSIG
  • 230350Z VRB02KT 7000 FEW070 15/15 Q1015 NOSIG
  • 230320Z VRB02KT 7000 FEW010 SCT070 16/15 Q1015 NOSIG
  • 230250Z 11004KT 080V140 9999 FEW010 SCT040 17/16 Q1015 NOSIG
  • 230220Z 07004KT 9000 SCT030 SCT060 16/16 Q1015 NOSIG

TAF AMD TAF LIPZ
Valid from the 23 at 05:00 until the 24 at 06:00 UTC


230450Z 2305/2406 VRB05KT 8000 FEW040
TEMPO 2305/2308 1500 BR
BECMG 2308/2310 16010KT
BECMG 2317/2319 VRB05KT
No reported NOTAMs for that airfield.



MET'MAP, your aeronautical weather chart ! - Copyright ORBIFLY December 2007 - Disclaimer

ORBIFLY MET'MAP TEAM :

Programming & Development : Alexandra Zaïnal
Concept & Development : Baudouin d'Aumeries
Co-Development & Prog : Marc-Olivier Méhu
Technical & hardware support : Manuel Goepfert

Contact : metmap@orbifly.com




SOURCES & CREDITS :

   NOAA